sensor_id;sensor_type;location;lat;lon;timestamp;pressure;altitude;pressure_sealevel;temperature;humidity
40384;BME280;26097;42.366;23.818;2023-06-22T00:00:01;94488.25;;;14.27;100.00
40384;BME280;26097;42.366;23.818;2023-06-22T00:03:02;94483.66;;;14.20;100.00
40384;BME280;26097;42.366;23.818;2023-06-22T00:06:03;94482.00;;;14.19;100.00
40384;BME280;26097;42.366;23.818;2023-06-22T00:09:03;94485.06;;;14.24;100.00
40384;BME280;26097;42.366;23.818;2023-06-22T00:12:04;94492.66;;;14.27;100.00
40384;BME280;26097;42.366;23.818;2023-06-22T00:15:05;94493.34;;;14.29;100.00
40384;BME280;26097;42.366;23.818;2023-06-22T00:18:06;94484.72;;;14.38;100.00
40384;BME280;26097;42.366;23.818;2023-06-22T00:21:07;94491.94;;;14.46;100.00
40384;BME280;26097;42.366;23.818;2023-06-22T00:24:08;94492.16;;;14.43;100.00
40384;BME280;26097;42.366;23.818;2023-06-22T00:27:08;94488.47;;;14.46;100.00
40384;BME280;26097;42.366;23.818;2023-06-22T00:30:09;94497.63;;;14.51;100.00
40384;BME280;26097;42.366;23.818;2023-06-22T00:33:10;94500.34;;;14.50;100.00
40384;BME280;26097;42.366;23.818;2023-06-22T00:36:10;94499.84;;;14.56;100.00
40384;BME280;26097;42.366;23.818;2023-06-22T00:39:13;94484.50;;;14.51;100.00
40384;BME280;26097;42.366;23.818;2023-06-22T00:42:14;94483.53;;;14.52;100.00
40384;BME280;26097;42.366;23.818;2023-06-22T00:45:14;94489.88;;;14.50;100.00
40384;BME280;26097;42.366;23.818;2023-06-22T00:48:16;94491.66;;;14.49;100.00
40384;BME280;26097;42.366;23.818;2023-06-22T00:51:16;94481.69;;;14.43;100.00
40384;BME280;26097;42.366;23.818;2023-06-22T00:54:17;94486.13;;;14.42;100.00
40384;BME280;26097;42.366;23.818;2023-06-22T00:57:25;94494.25;;;14.39;100.00
40384;BME280;26097;42.366;23.818;2023-06-22T01:00:28;94487.72;;;14.34;100.00
40384;BME280;26097;42.366;23.818;2023-06-22T01:03:28;94491.41;;;14.31;100.00
40384;BME280;26097;42.366;23.818;2023-06-22T01:06:45;94478.72;;;14.26;100.00
40384;BME280;26097;42.366;23.818;2023-06-22T01:16:26;94489.09;;;14.07;100.00
40384;BME280;26097;42.366;23.818;2023-06-22T01:26:08;94489.84;;;13.97;100.00
40384;BME280;26097;42.366;23.818;2023-06-22T01:29:14;94492.41;;;13.88;100.00
40384;BME280;26097;42.366;23.818;2023-06-22T01:32:16;94485.06;;;13.81;100.00
40384;BME280;26097;42.366;23.818;2023-06-22T01:35:19;94482.19;;;13.84;100.00
40384;BME280;26097;42.366;23.818;2023-06-22T01:38:20;94484.09;;;13.82;100.00
40384;BME280;26097;42.366;23.818;2023-06-22T01:41:25;94488.63;;;13.80;100.00
40384;BME280;26097;42.366;23.818;2023-06-22T01:44:26;94487.22;;;13.76;100.00
40384;BME280;26097;42.366;23.818;2023-06-22T01:47:27;94482.22;;;13.73;100.00
40384;BME280;26097;42.366;23.818;2023-06-22T01:50:28;94486.06;;;13.69;100.00
40384;BME280;26097;42.366;23.818;2023-06-22T01:53:29;94479.41;;;13.65;100.00
40384;BME280;26097;42.366;23.818;2023-06-22T01:56:29;94485.25;;;13.68;100.00
40384;BME280;26097;42.366;23.818;2023-06-22T02:03:10;94484.53;;;13.66;100.00
40384;BME280;26097;42.366;23.818;2023-06-22T02:06:16;94485.47;;;13.65;100.00
40384;BME280;26097;42.366;23.818;2023-06-22T02:09:19;94494.53;;;13.61;100.00
40384;BME280;26097;42.366;23.818;2023-06-22T02:12:23;94482.97;;;13.64;100.00
40384;BME280;26097;42.366;23.818;2023-06-22T02:15:25;94479.84;;;13.70;100.00
40384;BME280;26097;42.366;23.818;2023-06-22T02:18:26;94490.47;;;13.68;100.00
40384;BME280;26097;42.366;23.818;2023-06-22T02:21:26;94492.13;;;13.69;100.00
40384;BME280;26097;42.366;23.818;2023-06-22T02:24:26;94494.88;;;13.68;100.00
40384;BME280;26097;42.366;23.818;2023-06-22T02:27:27;94490.84;;;13.64;100.00
40384;BME280;26097;42.366;23.818;2023-06-22T02:30:27;94498.44;;;13.67;100.00
40384;BME280;26097;42.366;23.818;2023-06-22T02:33:28;94500.00;;;13.69;100.00
40384;BME280;26097;42.366;23.818;2023-06-22T02:36:28;94494.88;;;13.68;100.00
40384;BME280;26097;42.366;23.818;2023-06-22T02:39:30;94489.38;;;13.71;100.00
40384;BME280;26097;42.366;23.818;2023-06-22T02:42:31;94492.47;;;13.76;100.00
40384;BME280;26097;42.366;23.818;2023-06-22T02:45:31;94489.97;;;13.75;100.00
40384;BME280;26097;42.366;23.818;2023-06-22T02:48:32;94494.34;;;13.74;100.00
40384;BME280;26097;42.366;23.818;2023-06-22T02:51:33;94490.56;;;13.78;100.00
40384;BME280;26097;42.366;23.818;2023-06-22T02:54:34;94483.66;;;13.77;100.00
40384;BME280;26097;42.366;23.818;2023-06-22T02:57:35;94491.38;;;13.79;100.00
40384;BME280;26097;42.366;23.818;2023-06-22T03:00:35;94488.88;;;13.77;100.00
40384;BME280;26097;42.366;23.818;2023-06-22T03:03:35;94488.13;;;13.87;100.00
40384;BME280;26097;42.366;23.818;2023-06-22T03:06:36;94489.06;;;13.85;100.00
40384;BME280;26097;42.366;23.818;2023-06-22T03:09:36;94483.94;;;13.84;100.00
40384;BME280;26097;42.366;23.818;2023-06-22T03:12:38;94488.13;;;13.87;100.00
40384;BME280;26097;42.366;23.818;2023-06-22T03:15:38;94496.25;;;13.83;100.00
40384;BME280;26097;42.366;23.818;2023-06-22T03:18:39;94492.13;;;13.91;100.00
40384;BME280;26097;42.366;23.818;2023-06-22T03:21:40;94492.84;;;13.93;100.00
40384;BME280;26097;42.366;23.818;2023-06-22T03:24:40;94494.13;;;13.98;100.00
40384;BME280;26097;42.366;23.818;2023-06-22T03:27:41;94504.81;;;14.07;100.00
40384;BME280;26097;42.366;23.818;2023-06-22T03:30:42;94512.28;;;14.11;100.00
40384;BME280;26097;42.366;23.818;2023-06-22T03:33:43;94511.19;;;14.14;100.00
40384;BME280;26097;42.366;23.818;2023-06-22T03:36:43;94517.31;;;14.24;100.00
40384;BME280;26097;42.366;23.818;2023-06-22T03:39:45;94519.56;;;14.29;100.00
40384;BME280;26097;42.366;23.818;2023-06-22T03:42:46;94514.97;;;14.42;100.00
40384;BME280;26097;42.366;23.818;2023-06-22T03:45:46;94516.41;;;14.56;100.00
40384;BME280;26097;42.366;23.818;2023-06-22T03:48:47;94513.22;;;14.74;100.00
40384;BME280;26097;42.366;23.818;2023-06-22T03:51:47;94518.38;;;14.85;100.00
40384;BME280;26097;42.366;23.818;2023-06-22T03:54:48;94518.91;;;14.89;100.00
40384;BME280;26097;42.366;23.818;2023-06-22T03:57:48;94519.66;;;15.01;100.00
40384;BME280;26097;42.366;23.818;2023-06-22T04:00:50;94527.03;;;15.17;100.00
40384;BME280;26097;42.366;23.818;2023-06-22T04:03:51;94522.81;;;15.36;100.00
40384;BME280;26097;42.366;23.818;2023-06-22T04:06:51;94514.25;;;15.44;100.00
40384;BME280;26097;42.366;23.818;2023-06-22T04:09:52;94519.94;;;15.59;100.00
40384;BME280;26097;42.366;23.818;2023-06-22T04:12:52;94516.47;;;15.78;100.00
40384;BME280;26097;42.366;23.818;2023-06-22T04:15:53;94519.81;;;15.90;100.00
40384;BME280;26097;42.366;23.818;2023-06-22T04:18:54;94524.53;;;16.16;100.00
40384;BME280;26097;42.366;23.818;2023-06-22T04:21:54;94528.41;;;16.31;100.00
40384;BME280;26097;42.366;23.818;2023-06-22T04:24:54;94531.25;;;16.48;100.00
40384;BME280;26097;42.366;23.818;2023-06-22T04:27:55;94535.22;;;16.72;100.00
40384;BME280;26097;42.366;23.818;2023-06-22T04:30:55;94533.63;;;16.89;100.00
40384;BME280;26097;42.366;23.818;2023-06-22T04:34:03;94536.16;;;17.18;100.00
40384;BME280;26097;42.366;23.818;2023-06-22T04:37:07;94537.78;;;17.47;100.00
40384;BME280;26097;42.366;23.818;2023-06-22T04:40:07;94531.78;;;17.55;100.00
40384;BME280;26097;42.366;23.818;2023-06-22T04:43:08;94541.97;;;17.68;100.00
40384;BME280;26097;42.366;23.818;2023-06-22T04:46:10;94531.34;;;17.78;100.00
40384;BME280;26097;42.366;23.818;2023-06-22T04:49:10;94530.69;;;17.94;100.00
40384;BME280;26097;42.366;23.818;2023-06-22T04:52:12;94527.44;;;18.00;100.00
40384;BME280;26097;42.366;23.818;2023-06-22T04:55:13;94525.88;;;18.07;100.00
40384;BME280;26097;42.366;23.818;2023-06-22T04:58:18;94523.00;;;18.19;100.00
40384;BME280;26097;42.366;23.818;2023-06-22T05:01:20;94522.41;;;18.25;100.00
40384;BME280;26097;42.366;23.818;2023-06-22T05:04:22;94519.63;;;18.26;100.00
40384;BME280;26097;42.366;23.818;2023-06-22T05:07:23;94518.50;;;18.29;100.00
40384;BME280;26097;42.366;23.818;2023-06-22T05:10:26;94524.81;;;18.36;100.00
40384;BME280;26097;42.366;23.818;2023-06-22T05:13:26;94526.00;;;18.42;100.00
40384;BME280;26097;42.366;23.818;2023-06-22T05:16:26;94531.41;;;18.40;100.00
40384;BME280;26097;42.366;23.818;2023-06-22T05:19:27;94520.19;;;18.38;100.00
40384;BME280;26097;42.366;23.818;2023-06-22T05:22:33;94524.16;;;18.42;100.00
40384;BME280;26097;42.366;23.818;2023-06-22T05:25:33;94531.09;;;18.44;100.00
40384;BME280;26097;42.366;23.818;2023-06-22T05:28:34;94538.81;;;18.63;100.00
40384;BME280;26097;42.366;23.818;2023-06-22T05:31:34;94535.97;;;18.83;100.00
40384;BME280;26097;42.366;23.818;2023-06-22T05:34:35;94535.38;;;18.89;100.00
40384;BME280;26097;42.366;23.818;2023-06-22T05:37:35;94534.53;;;19.15;100.00
40384;BME280;26097;42.366;23.818;2023-06-22T05:40:35;94530.31;;;19.39;100.00
40384;BME280;26097;42.366;23.818;2023-06-22T05:43:36;94531.69;;;19.60;100.00
40384;BME280;26097;42.366;23.818;2023-06-22T05:46:37;94533.72;;;19.74;100.00
40384;BME280;26097;42.366;23.818;2023-06-22T05:49:37;94534.09;;;19.88;100.00
40384;BME280;26097;42.366;23.818;2023-06-22T05:52:38;94530.31;;;20.07;100.00
40384;BME280;26097;42.366;23.818;2023-06-22T05:55:38;94532.63;;;20.26;100.00
40384;BME280;26097;42.366;23.818;2023-06-22T05:58:39;94535.13;;;20.45;100.00
40384;BME280;26097;42.366;23.818;2023-06-22T06:01:39;94535.44;;;20.58;100.00
40384;BME280;26097;42.366;23.818;2023-06-22T06:04:40;94538.75;;;20.68;100.00
40384;BME280;26097;42.366;23.818;2023-06-22T06:07:41;94543.69;;;20.88;100.00
40384;BME280;26097;42.366;23.818;2023-06-22T06:10:42;94538.81;;;21.08;100.00
40384;BME280;26097;42.366;23.818;2023-06-22T06:13:42;94544.25;;;21.23;100.00
40384;BME280;26097;42.366;23.818;2023-06-22T06:16:42;94535.75;;;21.36;100.00
40384;BME280;26097;42.366;23.818;2023-06-22T06:19:43;94539.00;;;21.47;100.00
40384;BME280;26097;42.366;23.818;2023-06-22T06:22:43;94547.88;;;21.71;100.00
40384;BME280;26097;42.366;23.818;2023-06-22T06:25:44;94542.31;;;21.89;100.00
40384;BME280;26097;42.366;23.818;2023-06-22T06:28:45;94536.25;;;22.03;100.00
40384;BME280;26097;42.366;23.818;2023-06-22T06:31:46;94541.13;;;22.15;100.00
40384;BME280;26097;42.366;23.818;2023-06-22T06:34:46;94552.41;;;22.40;100.00
40384;BME280;26097;42.366;23.818;2023-06-22T06:37:48;94550.13;;;22.60;100.00
40384;BME280;26097;42.366;23.818;2023-06-22T06:40:49;94550.25;;;22.82;100.00
40384;BME280;26097;42.366;23.818;2023-06-22T06:43:49;94548.22;;;22.99;100.00
40384;BME280;26097;42.366;23.818;2023-06-22T06:46:50;94552.53;;;23.15;100.00
40384;BME280;26097;42.366;23.818;2023-06-22T06:49:50;94549.09;;;23.30;100.00
40384;BME280;26097;42.366;23.818;2023-06-22T06:52:50;94544.09;;;23.57;100.00
40384;BME280;26097;42.366;23.818;2023-06-22T06:55:51;94537.94;;;23.71;100.00
40384;BME280;26097;42.366;23.818;2023-06-22T06:58:51;94545.63;;;23.81;100.00
40384;BME280;26097;42.366;23.818;2023-06-22T07:01:52;94547.50;;;23.87;100.00
40384;BME280;26097;42.366;23.818;2023-06-22T07:04:52;94554.28;;;24.05;100.00
40384;BME280;26097;42.366;23.818;2023-06-22T07:07:53;94550.56;;;24.21;100.00
40384;BME280;26097;42.366;23.818;2023-06-22T07:10:53;94547.00;;;24.35;100.00
40384;BME280;26097;42.366;23.818;2023-06-22T07:13:54;94546.34;;;24.55;100.00
40384;BME280;26097;42.366;23.818;2023-06-22T07:16:54;94549.28;;;24.60;100.00
40384;BME280;26097;42.366;23.818;2023-06-22T07:19:54;94539.19;;;24.77;100.00
40384;BME280;26097;42.366;23.818;2023-06-22T07:22:55;94550.72;;;24.85;100.00
40384;BME280;26097;42.366;23.818;2023-06-22T07:25:55;94546.31;;;24.99;100.00
40384;BME280;26097;42.366;23.818;2023-06-22T07:28:56;94545.63;;;25.18;100.00
40384;BME280;26097;42.366;23.818;2023-06-22T07:31:56;94552.63;;;25.26;100.00
40384;BME280;26097;42.366;23.818;2023-06-22T07:34:57;94553.28;;;25.35;100.00
40384;BME280;26097;42.366;23.818;2023-06-22T07:37:57;94544.84;;;25.31;94.57
40384;BME280;26097;42.366;23.818;2023-06-22T07:40:57;94549.06;;;25.47;88.71
40384;BME280;26097;42.366;23.818;2023-06-22T07:43:58;94545.75;;;25.45;87.61
40384;BME280;26097;42.366;23.818;2023-06-22T07:46:58;94545.75;;;25.45;89.63
40384;BME280;26097;42.366;23.818;2023-06-22T07:49:59;94544.09;;;25.44;83.81
40384;BME280;26097;42.366;23.818;2023-06-22T07:53:01;94541.28;;;25.52;84.33
40384;BME280;26097;42.366;23.818;2023-06-22T07:56:01;94543.59;;;25.69;85.84
40384;BME280;26097;42.366;23.818;2023-06-22T07:59:07;94537.72;;;25.87;81.51
40384;BME280;26097;42.366;23.818;2023-06-22T08:02:07;94538.13;;;25.91;71.17
40384;BME280;26097;42.366;23.818;2023-06-22T08:05:09;94546.38;;;25.96;78.06
40384;BME280;26097;42.366;23.818;2023-06-22T08:08:10;94534.28;;;26.00;82.04
40384;BME280;26097;42.366;23.818;2023-06-22T08:11:10;94537.78;;;26.07;82.96
40384;BME280;26097;42.366;23.818;2023-06-22T08:14:11;94536.22;;;26.27;71.41
40384;BME280;26097;42.366;23.818;2023-06-22T08:17:11;94533.13;;;26.30;77.13
40384;BME280;26097;42.366;23.818;2023-06-22T08:20:12;94539.50;;;26.35;77.53
40384;BME280;26097;42.366;23.818;2023-06-22T08:23:12;94535.59;;;26.38;75.47
40384;BME280;26097;42.366;23.818;2023-06-22T08:26:14;94533.94;;;26.44;77.94
40384;BME280;26097;42.366;23.818;2023-06-22T08:29:14;94540.31;;;26.70;78.56
40384;BME280;26097;42.366;23.818;2023-06-22T08:32:15;94545.25;;;26.79;81.00
40384;BME280;26097;42.366;23.818;2023-06-22T08:35:15;94530.47;;;26.77;77.99
40384;BME280;26097;42.366;23.818;2023-06-22T08:38:16;94530.03;;;26.66;78.31
40384;BME280;26097;42.366;23.818;2023-06-22T08:41:18;94526.16;;;26.83;78.18
40384;BME280;26097;42.366;23.818;2023-06-22T08:44:19;94522.25;;;26.99;79.11
40384;BME280;26097;42.366;23.818;2023-06-22T08:47:19;94528.56;;;27.25;80.39
40384;BME280;26097;42.366;23.818;2023-06-22T08:50:21;94527.16;;;27.15;79.02
40384;BME280;26097;42.366;23.818;2023-06-22T08:53:21;94523.44;;;27.09;79.69
40384;BME280;26097;42.366;23.818;2023-06-22T08:56:22;94518.84;;;27.37;79.91
40384;BME280;26097;42.366;23.818;2023-06-22T08:59:23;94516.38;;;27.29;76.71
40384;BME280;26097;42.366;23.818;2023-06-22T09:02:23;94534.13;;;27.23;73.09
40384;BME280;26097;42.366;23.818;2023-06-22T09:05:24;94528.78;;;27.16;70.11
40384;BME280;26097;42.366;23.818;2023-06-22T09:08:28;94525.69;;;27.19;66.09
40384;BME280;26097;42.366;23.818;2023-06-22T09:11:28;94522.53;;;27.43;67.93
40384;BME280;26097;42.366;23.818;2023-06-22T09:14:28;94523.28;;;27.70;67.60
40384;BME280;26097;42.366;23.818;2023-06-22T09:17:29;94521.56;;;27.83;67.94
40384;BME280;26097;42.366;23.818;2023-06-22T09:20:29;94522.50;;;27.63;61.08
40384;BME280;26097;42.366;23.818;2023-06-22T09:23:30;94525.75;;;28.11;65.06
40384;BME280;26097;42.366;23.818;2023-06-22T09:26:30;94520.28;;;28.31;66.95
40384;BME280;26097;42.366;23.818;2023-06-22T09:29:31;94517.09;;;28.08;68.91
40384;BME280;26097;42.366;23.818;2023-06-22T09:32:33;94521.81;;;28.20;66.77
40384;BME280;26097;42.366;23.818;2023-06-22T09:35:34;94528.38;;;28.24;65.82
40384;BME280;26097;42.366;23.818;2023-06-22T09:38:38;94528.13;;;28.32;66.18
40384;BME280;26097;42.366;23.818;2023-06-22T09:41:38;94540.00;;;28.04;62.03
40384;BME280;26097;42.366;23.818;2023-06-22T09:44:39;94537.50;;;28.09;65.33
40384;BME280;26097;42.366;23.818;2023-06-22T09:47:39;94540.00;;;27.59;60.65
40384;BME280;26097;42.366;23.818;2023-06-22T09:50:40;94523.09;;;28.11;64.79
40384;BME280;26097;42.366;23.818;2023-06-22T09:53:41;94518.84;;;28.60;61.96
40384;BME280;26097;42.366;23.818;2023-06-22T09:56:41;94524.13;;;28.42;62.56
40384;BME280;26097;42.366;23.818;2023-06-22T09:59:41;94528.75;;;28.85;61.53
40384;BME280;26097;42.366;23.818;2023-06-22T10:02:42;94516.03;;;28.81;61.96
40384;BME280;26097;42.366;23.818;2023-06-22T10:05:43;94515.28;;;29.55;59.36
40384;BME280;26097;42.366;23.818;2023-06-22T10:08:43;94512.19;;;29.70;59.40
40384;BME280;26097;42.366;23.818;2023-06-22T10:11:43;94531.63;;;29.28;56.28
40384;BME280;26097;42.366;23.818;2023-06-22T10:14:44;94523.28;;;28.99;54.31
40384;BME280;26097;42.366;23.818;2023-06-22T10:17:44;94522.91;;;28.70;51.84
40384;BME280;26097;42.366;23.818;2023-06-22T10:20:47;94512.78;;;29.16;54.26
40384;BME280;26097;42.366;23.818;2023-06-22T10:23:48;94504.53;;;29.55;53.80
40384;BME280;26097;42.366;23.818;2023-06-22T10:26:48;94511.41;;;28.88;50.38
40384;BME280;26097;42.366;23.818;2023-06-22T10:29:49;94504.00;;;28.83;54.15
40384;BME280;26097;42.366;23.818;2023-06-22T10:32:49;94508.28;;;29.54;52.71
40384;BME280;26097;42.366;23.818;2023-06-22T10:35:50;94497.19;;;29.25;53.99
40384;BME280;26097;42.366;23.818;2023-06-22T10:38:50;94497.44;;;29.79;54.25
40384;BME280;26097;42.366;23.818;2023-06-22T10:41:52;94501.56;;;30.24;55.14
40384;BME280;26097;42.366;23.818;2023-06-22T10:44:53;94499.81;;;29.69;53.51
40384;BME280;26097;42.366;23.818;2023-06-22T10:47:53;94499.03;;;29.49;53.64
40384;BME280;26097;42.366;23.818;2023-06-22T10:50:53;94498.47;;;29.41;53.94
40384;BME280;26097;42.366;23.818;2023-06-22T10:53:54;94499.75;;;29.75;54.62
40384;BME280;26097;42.366;23.818;2023-06-22T10:56:55;94499.44;;;29.46;56.27
40384;BME280;26097;42.366;23.818;2023-06-22T10:59:55;94493.50;;;29.44;52.67
40384;BME280;26097;42.366;23.818;2023-06-22T11:02:55;94490.38;;;29.29;52.32
40384;BME280;26097;42.366;23.818;2023-06-22T11:05:56;94492.69;;;29.93;53.88
40384;BME280;26097;42.366;23.818;2023-06-22T11:08:57;94495.19;;;30.37;51.95
40384;BME280;26097;42.366;23.818;2023-06-22T11:11:58;94493.13;;;30.09;48.91
40384;BME280;26097;42.366;23.818;2023-06-22T11:14:59;94496.63;;;29.90;52.45
40384;BME280;26097;42.366;23.818;2023-06-22T11:17:59;94494.22;;;30.31;52.28
40384;BME280;26097;42.366;23.818;2023-06-22T11:21:00;94490.97;;;29.68;52.74
40384;BME280;26097;42.366;23.818;2023-06-22T11:24:00;94484.25;;;29.89;53.70
40384;BME280;26097;42.366;23.818;2023-06-22T11:27:01;94491.69;;;29.57;53.88
40384;BME280;26097;42.366;23.818;2023-06-22T11:30:01;94490.25;;;29.73;54.92
40384;BME280;26097;42.366;23.818;2023-06-22T11:33:02;94484.09;;;29.35;57.77
40384;BME280;26097;42.366;23.818;2023-06-22T11:36:02;94475.19;;;29.16;55.54
40384;BME280;26097;42.366;23.818;2023-06-22T11:39:03;94472.63;;;30.50;51.47
40384;BME280;26097;42.366;23.818;2023-06-22T11:42:03;94474.59;;;30.00;54.62
40384;BME280;26097;42.366;23.818;2023-06-22T11:45:05;94475.19;;;30.45;52.55
40384;BME280;26097;42.366;23.818;2023-06-22T11:48:05;94465.94;;;30.29;50.07
40384;BME280;26097;42.366;23.818;2023-06-22T11:51:07;94466.38;;;29.83;51.39
40384;BME280;26097;42.366;23.818;2023-06-22T11:54:08;94470.94;;;30.25;54.91
40384;BME280;26097;42.366;23.818;2023-06-22T11:57:08;94466.22;;;30.99;49.24
40384;BME280;26097;42.366;23.818;2023-06-22T12:00:09;94470.44;;;31.06;48.12
40384;BME280;26097;42.366;23.818;2023-06-22T12:03:16;94461.59;;;31.47;51.13
40384;BME280;26097;42.366;23.818;2023-06-22T12:06:17;94478.41;;;31.66;45.95
40384;BME280;26097;42.366;23.818;2023-06-22T12:09:17;94460.94;;;30.56;46.26
40384;BME280;26097;42.366;23.818;2023-06-22T12:12:18;94458.75;;;30.65;47.30
40384;BME280;26097;42.366;23.818;2023-06-22T12:15:18;94461.88;;;30.50;48.20
40384;BME280;26097;42.366;23.818;2023-06-22T12:18:19;94459.00;;;30.87;49.98
40384;BME280;26097;42.366;23.818;2023-06-22T12:21:21;94459.34;;;30.79;50.90
40384;BME280;26097;42.366;23.818;2023-06-22T12:24:21;94456.91;;;30.23;47.21
40384;BME280;26097;42.366;23.818;2023-06-22T12:27:22;94447.59;;;30.38;52.16
40384;BME280;26097;42.366;23.818;2023-06-22T12:30:22;94445.47;;;30.40;50.36
40384;BME280;26097;42.366;23.818;2023-06-22T12:33:23;94446.22;;;30.04;51.48
40384;BME280;26097;42.366;23.818;2023-06-22T12:36:23;94441.09;;;29.72;51.22
40384;BME280;26097;42.366;23.818;2023-06-22T12:39:24;94443.53;;;29.43;52.18
40384;BME280;26097;42.366;23.818;2023-06-22T12:42:25;94445.50;;;29.67;56.20
40384;BME280;26097;42.366;23.818;2023-06-22T12:45:26;94452.16;;;29.45;61.75
40384;BME280;26097;42.366;23.818;2023-06-22T12:48:29;94443.75;;;29.23;54.71
40384;BME280;26097;42.366;23.818;2023-06-22T12:51:29;94433.53;;;29.13;66.81
40384;BME280;26097;42.366;23.818;2023-06-22T12:54:29;94442.19;;;28.97;66.69
40384;BME280;26097;42.366;23.818;2023-06-22T12:57:30;94435.84;;;28.91;63.95
40384;BME280;26097;42.366;23.818;2023-06-22T13:00:30;94431.59;;;29.02;64.16
40384;BME280;26097;42.366;23.818;2023-06-22T13:03:34;94423.09;;;29.24;63.23
40384;BME280;26097;42.366;23.818;2023-06-22T13:06:34;94424.72;;;28.87;80.94
40384;BME280;26097;42.366;23.818;2023-06-22T13:09:36;94435.56;;;28.81;81.40
40384;BME280;26097;42.366;23.818;2023-06-22T13:12:37;94446.13;;;28.69;80.28
40384;BME280;26097;42.366;23.818;2023-06-22T13:15:37;94448.59;;;28.70;77.39
40384;BME280;26097;42.366;23.818;2023-06-22T13:18:37;94455.84;;;28.70;70.13
40384;BME280;26097;42.366;23.818;2023-06-22T13:21:38;94444.69;;;28.73;72.59
40384;BME280;26097;42.366;23.818;2023-06-22T13:24:38;94454.31;;;28.55;74.79
40384;BME280;26097;42.366;23.818;2023-06-22T13:27:39;94455.41;;;28.22;81.19
40384;BME280;26097;42.366;23.818;2023-06-22T13:30:40;94450.22;;;27.95;85.51
40384;BME280;26097;42.366;23.818;2023-06-22T13:33:40;94451.06;;;27.57;90.71
40384;BME280;26097;42.366;23.818;2023-06-22T13:36:41;94448.75;;;27.08;91.64
40384;BME280;26097;42.366;23.818;2023-06-22T13:39:41;94453.53;;;26.92;83.73
40384;BME280;26097;42.366;23.818;2023-06-22T13:42:42;94453.53;;;26.92;93.35
40384;BME280;26097;42.366;23.818;2023-06-22T13:45:42;94459.69;;;26.79;92.46
40384;BME280;26097;42.366;23.818;2023-06-22T13:48:43;94457.06;;;26.52;100.00
40384;BME280;26097;42.366;23.818;2023-06-22T13:51:43;94465.06;;;26.32;100.00
40384;BME280;26097;42.366;23.818;2023-06-22T13:54:44;94461.38;;;26.20;100.00
40384;BME280;26097;42.366;23.818;2023-06-22T13:57:44;94461.38;;;26.47;100.00
40384;BME280;26097;42.366;23.818;2023-06-22T14:00:45;94457.66;;;26.61;100.00
40384;BME280;26097;42.366;23.818;2023-06-22T14:03:47;94462.19;;;26.67;100.00
40384;BME280;26097;42.366;23.818;2023-06-22T14:06:48;94456.00;;;26.87;100.00
40384;BME280;26097;42.366;23.818;2023-06-22T14:09:48;94446.94;;;26.81;100.00
40384;BME280;26097;42.366;23.818;2023-06-22T14:12:49;94453.13;;;26.69;100.00
40384;BME280;26097;42.366;23.818;2023-06-22T14:15:50;94451.09;;;26.57;100.00
40384;BME280;26097;42.366;23.818;2023-06-22T14:18:52;94443.09;;;26.57;100.00
40384;BME280;26097;42.366;23.818;2023-06-22T14:21:52;94439.19;;;26.53;100.00
40384;BME280;26097;42.366;23.818;2023-06-22T14:24:53;94438.78;;;26.36;100.00
40384;BME280;26097;42.366;23.818;2023-06-22T14:27:53;94437.75;;;26.17;100.00
40384;BME280;26097;42.366;23.818;2023-06-22T14:30:53;94436.44;;;25.72;100.00
40384;BME280;26097;42.366;23.818;2023-06-22T14:33:54;94434.88;;;25.36;100.00
40384;BME280;26097;42.366;23.818;2023-06-22T14:36:54;94438.41;;;25.01;100.00
40384;BME280;26097;42.366;23.818;2023-06-22T14:39:55;94441.47;;;24.98;100.00
40384;BME280;26097;42.366;23.818;2023-06-22T14:42:55;94442.47;;;24.90;100.00
40384;BME280;26097;42.366;23.818;2023-06-22T14:45:56;94454.25;;;24.74;100.00
40384;BME280;26097;42.366;23.818;2023-06-22T14:48:57;94454.94;;;24.55;100.00
40384;BME280;26097;42.366;23.818;2023-06-22T14:51:57;94457.72;;;24.39;100.00
40384;BME280;26097;42.366;23.818;2023-06-22T14:54:58;94458.28;;;24.35;100.00
40384;BME280;26097;42.366;23.818;2023-06-22T14:57:58;94456.69;;;24.41;100.00
40384;BME280;26097;42.366;23.818;2023-06-22T15:01:02;94451.16;;;24.42;100.00
40384;BME280;26097;42.366;23.818;2023-06-22T15:04:03;94456.09;;;24.45;100.00
40384;BME280;26097;42.366;23.818;2023-06-22T15:07:03;94468.50;;;24.31;100.00
40384;BME280;26097;42.366;23.818;2023-06-22T15:10:04;94458.47;;;24.33;100.00
40384;BME280;26097;42.366;23.818;2023-06-22T15:13:05;94460.44;;;24.24;100.00
40384;BME280;26097;42.366;23.818;2023-06-22T15:16:06;94448.75;;;24.19;100.00
40384;BME280;26097;42.366;23.818;2023-06-22T15:19:06;94445.50;;;24.02;100.00
40384;BME280;26097;42.366;23.818;2023-06-22T15:22:07;94449.63;;;24.04;100.00
40384;BME280;26097;42.366;23.818;2023-06-22T15:25:08;94444.38;;;24.11;100.00
40384;BME280;26097;42.366;23.818;2023-06-22T15:28:08;94434.28;;;23.85;100.00
40384;BME280;26097;42.366;23.818;2023-06-22T15:31:09;94431.63;;;24.06;100.00
40384;BME280;26097;42.366;23.818;2023-06-22T15:34:12;94429.22;;;24.12;100.00
40384;BME280;26097;42.366;23.818;2023-06-22T15:37:13;94419.34;;;24.05;100.00
40384;BME280;26097;42.366;23.818;2023-06-22T15:40:13;94427.13;;;24.07;100.00
40384;BME280;26097;42.366;23.818;2023-06-22T15:43:14;94421.78;;;24.07;100.00
40384;BME280;26097;42.366;23.818;2023-06-22T15:46:14;94423.00;;;24.04;100.00
40384;BME280;26097;42.366;23.818;2023-06-22T15:49:17;94432.19;;;24.02;100.00
40384;BME280;26097;42.366;23.818;2023-06-22T15:52:18;94420.81;;;23.93;100.00